Time;durP1;ratioP1;P1;durP2;ratioP2;P2;SDS_P1;SDS_P2;PMS_P1;PMS_P2;Temp;Humidity;BMP_temperature;BMP_pressure;BME280_temperature;BME280_humidity;BME280_pressure;Samples;Min_cycle;Max_cycle;Signal;HPM_P1;HPM_P2
2021/11/13 00:00:38;;;;;;;9.75;2.80;;;12.30;99.90;;;;;;5069320;28;20051;-70
2021/11/13 00:03:05;;;;;;;4.80;2.20;;;12.30;99.90;;;;;;5081741;28;20093;-71
2021/11/13 00:05:32;;;;;;;12.35;3.17;;;12.30;99.90;;;;;;5081226;28;20048;-70
2021/11/13 00:07:59;;;;;;;6.43;2.50;;;12.30;99.90;;;;;;5078275;28;20088;-71
2021/11/13 00:10:27;;;;;;;10.73;2.65;;;12.30;99.90;;;;;;5080226;28;20794;-70
2021/11/13 00:12:59;;;;;;;9.85;2.80;;;12.20;99.90;;;;;;5075852;28;20072;-70
2021/11/13 00:15:27;;;;;;;8.10;2.63;;;12.20;99.90;;;;;;5065554;28;20043;-71
2021/11/13 00:17:54;;;;;;;7.25;2.40;;;12.20;99.90;;;;;;5087372;28;20380;-71
2021/11/13 00:20:22;;;;;;;9.30;3.30;;;12.20;99.90;;;;;;5080128;28;20427;-71
2021/11/13 00:22:49;;;;;;;7.75;2.50;;;12.10;99.90;;;;;;5081548;28;20036;-71
2021/11/13 00:25:16;;;;;;;7.03;2.60;;;12.10;99.90;;;;;;5066293;28;20048;-72
2021/11/13 00:27:43;;;;;;;7.97;2.53;;;12.10;99.90;;;;;;5082174;28;20051;-71
2021/11/13 00:30:11;;;;;;;8.18;2.60;;;12.10;99.90;;;;;;5077323;28;20106;-71
2021/11/13 00:32:38;;;;;;;5.93;2.55;;;12.00;99.90;;;;;;5065900;28;20052;-71
2021/11/13 00:35:05;;;;;;;6.18;2.42;;;11.90;99.90;;;;;;5076716;28;20411;-71
2021/11/13 00:37:32;;;;;;;11.35;3.00;;;11.80;99.90;;;;;;5068763;28;20044;-71
2021/11/13 00:39:59;;;;;;;7.03;2.50;;;11.70;99.90;;;;;;5085358;28;20044;-71
2021/11/13 00:42:26;;;;;;;8.65;2.58;;;11.70;99.90;;;;;;5088744;28;20075;-71
2021/11/13 00:44:53;;;;;;;11.73;3.20;;;11.60;99.90;;;;;;5079575;28;20496;-72
2021/11/13 00:47:20;;;;;;;10.13;4.05;;;11.60;99.90;;;;;;5088967;28;20062;-71
2021/11/13 00:49:47;;;;;;;6.43;2.72;;;11.50;99.90;;;;;;5085732;28;20050;-71
2021/11/13 00:52:13;;;;;;;7.88;3.38;;;11.50;99.90;;;;;;5075100;28;20067;-71
2021/11/13 00:54:40;;;;;;;10.98;2.38;;;11.40;99.90;;;;;;5088191;28;20044;-72
2021/11/13 00:57:08;;;;;;;5.93;2.33;;;11.40;99.90;;;;;;5081813;28;20377;-72
2021/11/13 00:59:36;;;;;;;6.40;2.85;;;11.30;99.90;;;;;;5071633;28;20055;-71
2021/11/13 01:02:04;;;;;;;9.18;2.72;;;11.20;99.90;;;;;;5079953;28;20044;-71
2021/11/13 01:04:31;;;;;;;6.90;2.28;;;11.30;99.90;;;;;;5086718;28;20511;-71
2021/11/13 01:06:58;;;;;;;5.63;2.58;;;11.30;99.90;;;;;;5082149;28;20040;-71
2021/11/13 01:09:25;;;;;;;10.95;2.70;;;11.30;99.90;;;;;;5079469;28;20045;-70
2021/11/13 01:11:52;;;;;;;11.13;4.45;;;11.30;99.90;;;;;;5078335;28;20492;-70
2021/11/13 01:14:19;;;;;;;6.55;2.20;;;11.20;99.90;;;;;;5083250;28;20044;-71
2021/11/13 01:16:46;;;;;;;9.60;2.45;;;11.20;99.90;;;;;;5087905;28;20522;-71
2021/11/13 01:19:13;;;;;;;8.13;2.28;;;11.20;99.90;;;;;;5085537;28;20071;-71
2021/11/13 01:21:40;;;;;;;6.07;2.38;;;11.20;99.90;;;;;;5079050;28;20057;-71
2021/11/13 01:24:07;;;;;;;5.18;2.97;;;11.10;99.90;;;;;;5067989;28;20053;-71
2021/11/13 01:26:34;;;;;;;7.00;2.70;;;11.10;99.90;;;;;;5065743;28;20052;-71
2021/11/13 01:29:01;;;;;;;6.60;2.53;;;11.20;99.90;;;;;;5073157;28;20052;-72
2021/11/13 01:31:28;;;;;;;7.97;2.28;;;11.20;99.90;;;;;;5079840;28;20089;-71
2021/11/13 01:33:56;;;;;;;11.98;3.05;;;11.20;99.90;;;;;;5086761;28;20056;-71
2021/11/13 01:36:24;;;;;;;11.77;3.20;;;11.20;99.90;;;;;;5083810;28;20052;-72
2021/11/13 01:38:51;;;;;;;7.40;2.53;;;11.20;99.90;;;;;;5087466;28;20401;-71
2021/11/13 01:41:18;;;;;;;6.65;2.45;;;11.20;99.90;;;;;;5052430;28;20110;-71
2021/11/13 01:43:45;;;;;;;6.88;2.25;;;11.10;99.90;;;;;;5089195;28;20050;-70
2021/11/13 01:46:12;;;;;;;8.38;2.40;;;11.10;99.90;;;;;;5068092;28;20056;-70
2021/11/13 01:48:39;;;;;;;5.20;3.35;;;11.00;99.90;;;;;;5082254;28;20052;-71
2021/11/13 01:51:34;;;;;;;6.82;2.72;;;11.00;99.90;;;;;;5086806;28;20048;-71
2021/11/13 01:54:09;;;;;;;8.63;2.80;;;11.00;99.90;;;;;;5086284;28;20052;-71
2021/11/13 01:56:38;;;;;;;7.50;3.03;;;10.90;99.90;;;;;;5087963;28;20159;-71
2021/11/13 01:59:05;;;;;;;12.70;3.92;;;10.90;99.90;;;;;;5087117;28;20048;-71
2021/11/13 02:01:32;;;;;;;8.98;3.08;;;10.80;99.90;;;;;;5086635;28;20491;-71
2021/11/13 02:03:59;;;;;;;8.95;2.40;;;10.90;99.90;;;;;;5087784;28;20384;-71
2021/11/13 02:06:26;;;;;;;5.32;2.25;;;11.00;99.90;;;;;;5090915;28;20487;-71
2021/11/13 02:08:53;;;;;;;6.05;2.60;;;11.00;99.90;;;;;;5080412;28;20051;-71
2021/11/13 02:11:24;;;;;;;5.70;2.70;;;11.10;99.90;;;;;;5086498;28;20048;-71
2021/11/13 02:13:51;;;;;;;6.63;3.00;;;11.10;99.90;;;;;;5090684;28;20052;-71
2021/11/13 02:16:18;;;;;;;12.48;2.70;;;11.20;99.90;;;;;;5073406;28;20044;-71
2021/11/13 02:18:45;;;;;;;8.40;2.75;;;11.20;99.90;;;;;;5071501;28;20051;-71
2021/11/13 02:21:12;;;;;;;8.30;2.53;;;11.20;99.90;;;;;;5080438;28;20051;-71
2021/11/13 02:23:40;;;;;;;9.70;3.38;;;11.20;99.90;;;;;;5055176;28;20499;-71
2021/11/13 02:26:07;;;;;;;5.97;2.50;;;11.30;99.90;;;;;;5087528;28;20055;-71
2021/11/13 02:28:35;;;;;;;9.10;2.75;;;11.30;99.90;;;;;;5090707;28;20044;-71
2021/11/13 02:31:05;;;;;;;9.27;2.83;;;11.30;99.90;;;;;;5071156;28;20049;-71
2021/11/13 02:33:32;;;;;;;5.63;3.03;;;11.30;99.90;;;;;;5089626;28;20686;-71
2021/11/13 02:35:59;;;;;;;8.43;2.38;;;11.30;99.90;;;;;;5089502;28;20058;-71
2021/11/13 02:38:33;;;;;;;10.52;3.70;;;11.30;99.90;;;;;;5082717;28;20041;-71
2021/11/13 02:41:01;;;;;;;9.88;2.50;;;11.30;99.90;;;;;;5073104;28;20059;-71
2021/11/13 02:43:29;;;;;;;9.13;2.90;;;11.40;99.90;;;;;;5089398;28;20044;-71
2021/11/13 02:45:57;;;;;;;6.38;2.63;;;11.40;99.90;;;;;;5082533;28;20044;-71
2021/11/13 02:48:25;;;;;;;8.35;2.95;;;11.40;99.90;;;;;;5090318;28;20048;-71
2021/11/13 02:50:52;;;;;;;6.95;2.70;;;11.30;99.90;;;;;;5066085;28;20041;-71
2021/11/13 02:53:21;;;;;;;5.82;2.60;;;11.40;99.90;;;;;;5089278;28;20396;-71
2021/11/13 02:55:48;;;;;;;6.20;2.63;;;11.30;99.90;;;;;;5083787;28;20079;-71
2021/11/13 02:58:15;;;;;;;4.40;2.33;;;11.30;99.90;;;;;;5077036;28;20052;-71
2021/11/13 03:00:43;;;;;;;6.45;2.60;;;11.30;99.90;;;;;;5081378;28;20040;-71
2021/11/13 03:03:15;;;;;;;7.97;2.47;;;11.20;99.90;;;;;;5084890;28;20511;-71
2021/11/13 03:05:52;;;;;;;7.45;3.35;;;11.20;99.90;;;;;;5089241;28;20052;-71
2021/11/13 03:08:30;;;;;;;6.55;2.22;;;11.20;99.90;;;;;;5088215;28;20055;-71
2021/11/13 03:10:58;;;;;;;8.02;2.72;;;11.10;99.90;;;;;;5084785;28;20051;-71
2021/11/13 03:13:25;;;;;;;8.00;2.50;;;11.00;99.90;;;;;;5072124;28;20044;-71
2021/11/13 03:15:52;;;;;;;6.50;2.22;;;11.00;99.90;;;;;;5083001;28;20044;-71
2021/11/13 03:18:19;;;;;;;4.75;2.35;;;10.90;99.90;;;;;;5089258;28;20052;-71
2021/11/13 03:20:47;;;;;;;11.27;2.45;;;10.90;99.90;;;;;;5083334;28;20096;-71
2021/11/13 03:23:14;;;;;;;4.75;2.22;;;10.80;99.90;;;;;;5088979;28;20056;-70
2021/11/13 03:25:56;;;;;;;5.68;2.10;;;10.80;99.90;;;;;;5081261;28;20052;-72
2021/11/13 03:28:24;;;;;;;12.05;2.80;;;10.80;99.90;;;;;;5075078;28;20051;-71
2021/11/13 03:30:51;;;;;;;4.68;2.10;;;10.80;99.90;;;;;;5079041;28;20055;-71
2021/11/13 03:33:18;;;;;;;8.13;1.85;;;10.80;99.90;;;;;;5071958;28;20766;-71
2021/11/13 03:35:45;;;;;;;8.00;2.58;;;10.80;99.90;;;;;;5088043;28;20427;-71
2021/11/13 03:38:14;;;;;;;5.45;2.15;;;10.90;99.90;;;;;;5085163;28;20048;-71
2021/11/13 03:40:43;;;;;;;7.27;3.00;;;10.90;99.90;;;;;;5068719;28;20127;-70
2021/11/13 03:43:10;;;;;;;6.88;2.03;;;11.00;99.90;;;;;;5089084;28;20285;-71
2021/11/13 03:45:37;;;;;;;6.00;1.77;;;11.00;99.90;;;;;;5087821;28;20071;-71
2021/11/13 03:48:04;;;;;;;3.75;1.80;;;11.10;99.90;;;;;;5088144;28;20043;-71
2021/11/13 03:50:31;;;;;;;6.05;2.15;;;11.10;99.90;;;;;;5088694;28;20048;-71
2021/11/13 03:52:58;;;;;;;6.82;2.35;;;11.10;99.90;;;;;;5090874;28;20124;-72
2021/11/13 03:55:25;;;;;;;3.58;1.75;;;11.10;99.90;;;;;;5083895;28;20048;-71
2021/11/13 03:57:52;;;;;;;6.10;2.10;;;11.10;99.90;;;;;;5089108;28;20093;-71
2021/11/13 04:00:20;;;;;;;3.97;1.63;;;11.10;99.90;;;;;;5065808;28;20453;-71
2021/11/13 04:02:47;;;;;;;7.68;1.98;;;11.20;99.90;;;;;;5086799;28;20044;-71
2021/11/13 04:05:15;;;;;;;5.38;2.45;;;11.20;99.90;;;;;;5087286;28;20051;-71
2021/11/13 04:07:42;;;;;;;3.92;1.83;;;11.20;99.90;;;;;;5086543;28;20510;-70
2021/11/13 04:10:10;;;;;;;5.50;1.83;;;11.20;99.90;;;;;;5083184;28;20051;-71
2021/11/13 04:12:37;;;;;;;5.53;1.77;;;11.20;99.90;;;;;;5077602;28;20060;-71
2021/11/13 04:15:04;;;;;;;7.45;2.13;;;11.20;99.90;;;;;;5088440;28;20044;-71
2021/11/13 04:17:31;;;;;;;4.63;1.63;;;11.20;99.90;;;;;;5085703;28;20044;-71
2021/11/13 04:19:58;;;;;;;5.35;1.73;;;11.20;99.90;;;;;;5068420;28;20063;-71
2021/11/13 04:22:28;;;;;;;4.10;1.90;;;11.20;99.90;;;;;;5081029;28;20511;-71
2021/11/13 04:24:55;;;;;;;5.97;2.20;;;11.30;99.90;;;;;;5089956;28;20055;-72
2021/11/13 04:27:22;;;;;;;5.15;1.27;;;11.20;99.90;;;;;;5086466;28;20051;-72
2021/11/13 04:29:49;;;;;;;7.97;2.17;;;11.30;99.90;;;;;;5084527;28;20047;-72
2021/11/13 04:32:16;;;;;;;4.75;1.67;;;11.30;99.90;;;;;;5086328;28;20506;-71
2021/11/13 04:35:13;;;;;;;4.47;1.88;;;11.30;99.90;;;;;;5068571;28;20040;-71
2021/11/13 04:37:36;;;;;;;7.03;2.05;;;11.30;99.90;;;;;;5086838;28;20047;-71
2021/11/13 04:40:04;;;;;;;9.43;2.13;;;11.30;99.90;;;;;;5084501;28;20056;-71
2021/11/13 04:42:30;;;;;;;4.57;2.10;;;11.30;99.90;;;;;;5087953;28;20056;-71
2021/11/13 04:44:57;;;;;;;6.55;2.08;;;11.40;99.90;;;;;;5084862;28;20040;-71
2021/11/13 04:47:24;;;;;;;5.95;1.90;;;11.30;99.90;;;;;;5089047;28;20048;-70
2021/11/13 04:49:51;;;;;;;6.22;1.60;;;11.40;99.90;;;;;;5068236;28;20047;-72
2021/11/13 04:52:18;;;;;;;7.78;1.73;;;11.40;99.90;;;;;;5092753;28;20044;-71
2021/11/13 04:54:45;;;;;;;12.02;1.63;;;11.40;99.90;;;;;;5085331;28;20048;-71
2021/11/13 04:57:12;;;;;;;5.82;1.73;;;11.40;99.90;;;;;;5085065;28;20127;-71
2021/11/13 04:59:39;;;;;;;9.63;1.42;;;11.40;99.90;;;;;;5064860;28;20054;-70
2021/11/13 05:02:06;;;;;;;3.60;1.63;;;11.40;99.90;;;;;;5081399;28;20478;-71
2021/11/13 05:04:33;;;;;;;3.40;1.20;;;11.40;99.90;;;;;;5087222;28;20040;-71
2021/11/13 05:07:00;;;;;;;9.75;1.45;;;11.40;99.90;;;;;;5070808;28;20480;-71
2021/11/13 05:09:27;;;;;;;5.65;1.83;;;11.40;99.90;;;;;;5088800;28;20044;-71
2021/11/13 05:11:54;;;;;;;6.15;1.85;;;11.40;99.90;;;;;;5075170;28;20049;-71
2021/11/13 05:14:21;;;;;;;6.68;1.90;;;11.40;99.60;;;;;;5077692;28;20060;-71
2021/11/13 05:16:48;;;;;;;8.60;2.05;;;11.50;99.60;;;;;;5070618;28;20048;-72
2021/11/13 05:19:15;;;;;;;5.00;1.48;;;11.40;99.70;;;;;;5082951;28;20517;-71
2021/11/13 05:21:41;;;;;;;6.55;1.52;;;11.50;99.90;;;;;;5082032;28;20040;-71
2021/11/13 05:24:08;;;;;;;5.05;1.50;;;11.50;99.80;;;;;;5080421;28;20048;-72
2021/11/13 05:26:35;;;;;;;3.05;1.30;;;11.40;99.70;;;;;;5082072;28;20139;-71
2021/11/13 05:29:03;;;;;;;2.22;1.17;;;11.50;99.40;;;;;;5072423;28;20403;-72
2021/11/13 05:31:29;;;;;;;2.17;1.27;;;11.50;99.50;;;;;;5079733;28;20063;-72
2021/11/13 05:33:56;;;;;;;5.35;1.50;;;11.50;99.50;;;;;;5087156;28;20051;-72
2021/11/13 05:36:23;;;;;;;5.40;2.10;;;11.50;99.70;;;;;;5089680;28;20097;-72
2021/11/13 05:38:50;;;;;;;3.40;1.10;;;11.50;99.20;;;;;;5090658;28;20415;-72
2021/11/13 05:41:17;;;;;;;3.95;1.25;;;11.50;99.20;;;;;;5083805;28;20514;-70
2021/11/13 05:43:54;;;;;;;5.65;1.50;;;11.50;99.30;;;;;;5077902;28;20044;-71
2021/11/13 05:46:21;;;;;;;2.53;1.38;;;11.50;98.70;;;;;;5090849;28;20044;-72
2021/11/13 05:48:48;;;;;;;4.13;1.55;;;11.50;99.20;;;;;;5086490;28;20422;-71
2021/11/13 05:51:15;;;;;;;54.67;42.03;;;11.50;98.50;;;;;;5082620;28;20048;-70
2021/11/13 05:53:42;;;;;;;13.40;8.75;;;11.60;99.40;;;;;;5091699;28;20062;-69
2021/11/13 05:56:09;;;;;;;4.13;2.00;;;11.60;99.50;;;;;;5084416;28;20100;-69
2021/11/13 05:58:55;;;;;;;25.48;16.67;;;11.60;99.00;;;;;;5083421;28;20498;-72
2021/11/13 06:01:22;;;;;;;351.73;269.25;;;11.60;99.30;;;;;;5083947;28;20041;-70
2021/11/13 06:03:49;;;;;;;20.67;17.80;;;11.60;98.90;;;;;;5088025;28;20088;-70
2021/11/13 06:06:16;;;;;;;9.85;4.68;;;11.60;98.40;;;;;;5081981;28;20054;-70
2021/11/13 06:08:43;;;;;;;5.80;2.45;;;11.60;98.70;;;;;;5085321;28;20051;-70
2021/11/13 06:11:10;;;;;;;3.92;1.63;;;11.60;99.30;;;;;;5063024;28;20410;-70
2021/11/13 06:13:37;;;;;;;8.02;1.52;;;11.60;98.90;;;;;;5092665;28;20048;-71
2021/11/13 06:16:06;;;;;;;6.65;1.33;;;11.60;99.60;;;;;;5103896;28;20046;-70
2021/11/13 06:18:34;;;;;;;4.57;1.60;;;11.60;98.10;;;;;;5095739;28;20788;-70
2021/11/13 06:21:02;;;;;;;3.90;1.35;;;11.60;98.60;;;;;;5091906;28;20143;-71
2021/11/13 06:23:29;;;;;;;5.68;2.42;;;11.60;98.80;;;;;;5100358;28;20499;-71
2021/11/13 06:25:56;;;;;;;6.68;1.30;;;11.60;99.00;;;;;;5083861;28;20071;-71
2021/11/13 06:28:23;;;;;;;4.32;1.70;;;11.60;99.40;;;;;;5085448;28;20433;-71
2021/11/13 06:30:50;;;;;;;4.82;1.20;;;11.60;99.60;;;;;;5090369;28;20139;-71
2021/11/13 06:33:17;;;;;;;3.60;1.38;;;11.50;98.90;;;;;;5086837;28;20047;-70
2021/11/13 06:35:44;;;;;;;6.07;1.73;;;11.50;99.80;;;;;;5072331;28;20053;-70
2021/11/13 06:38:11;;;;;;;5.88;1.30;;;11.50;99.40;;;;;;5084362;28;20058;-70
2021/11/13 06:40:38;;;;;;;2.67;1.30;;;11.50;99.70;;;;;;5075000;28;20051;-72
2021/11/13 06:43:05;;;;;;;3.67;1.58;;;11.50;99.50;;;;;;5083058;28;20044;-70
2021/11/13 06:45:32;;;;;;;3.25;1.23;;;11.50;99.90;;;;;;5080373;28;20062;-70
2021/11/13 06:47:59;;;;;;;7.60;1.42;;;11.50;99.60;;;;;;5083730;28;20048;-70
2021/11/13 06:50:26;;;;;;;3.03;1.92;;;11.50;99.90;;;;;;5083521;28;20164;-71
2021/11/13 06:52:53;;;;;;;3.30;1.50;;;11.40;99.70;;;;;;5073459;28;20377;-71
2021/11/13 06:55:20;;;;;;;3.40;1.15;;;11.50;99.70;;;;;;5070616;28;20516;-70
2021/11/13 06:57:47;;;;;;;5.32;2.08;;;11.50;99.70;;;;;;5078962;28;20110;-70
2021/11/13 07:00:16;;;;;;;2.30;0.95;;;11.40;99.80;;;;;;5086281;28;20059;-71
2021/11/13 07:02:43;;;;;;;5.57;1.50;;;11.40;99.60;;;;;;5090047;28;20408;-70
2021/11/13 07:05:11;;;;;;;4.45;1.38;;;11.40;99.60;;;;;;5082592;28;20078;-70
2021/11/13 07:07:38;;;;;;;3.50;1.70;;;11.30;99.90;;;;;;5081289;28;20099;-70
2021/11/13 07:10:10;;;;;;;5.55;2.05;;;11.30;99.90;;;;;;5067232;28;20060;-70
2021/11/13 07:12:37;;;;;;;4.70;1.48;;;11.30;99.90;;;;;;5088276;28;20044;-71
2021/11/13 07:15:05;;;;;;;2.05;1.27;;;11.30;99.90;;;;;;5072645;28;20141;-71
2021/11/13 07:17:32;;;;;;;5.40;1.83;;;11.30;99.90;;;;;;5062502;28;20045;-71
2021/11/13 07:20:02;;;;;;;11.07;2.85;;;11.30;99.90;;;;;;5089450;28;20081;-70
2021/11/13 07:22:29;;;;;;;5.20;1.40;;;11.40;99.90;;;;;;5068841;28;20147;-70
2021/11/13 07:24:56;;;;;;;5.15;1.75;;;11.40;99.90;;;;;;5077232;28;20044;-70
2021/11/13 07:27:24;;;;;;;3.30;1.40;;;11.40;99.80;;;;;;5086355;28;20048;-70
2021/11/13 07:30:02;;;;;;;5.88;1.58;;;11.40;99.90;;;;;;5078576;28;20063;-70
2021/11/13 07:32:29;;;;;;;4.80;1.25;;;11.40;99.90;;;;;;5084058;28;20130;-70
2021/11/13 07:34:56;;;;;;;4.60;1.92;;;11.50;99.90;;;;;;5083450;28;20123;-70
2021/11/13 07:37:25;;;;;;;6.88;2.08;;;11.50;99.90;;;;;;5084092;28;20051;-71
2021/11/13 07:39:53;;;;;;;3.95;1.45;;;11.50;99.60;;;;;;5085384;28;20546;-70
2021/11/13 07:42:20;;;;;;;4.78;1.73;;;11.50;99.90;;;;;;5072073;28;20117;-70
2021/11/13 07:44:47;;;;;;;3.03;1.25;;;11.50;99.30;;;;;;5084610;28;20048;-71
2021/11/13 07:47:15;;;;;;;4.38;1.30;;;11.50;99.30;;;;;;5078511;28;20407;-70
2021/11/13 07:49:42;;;;;;;4.53;1.50;;;11.50;99.70;;;;;;5068143;28;20041;-71
2021/11/13 07:52:09;;;;;;;4.85;1.80;;;11.50;99.80;;;;;;5083428;28;20101;-71
2021/11/13 07:54:36;;;;;;;4.45;1.63;;;11.60;99.90;;;;;;5071847;28;20477;-71
2021/11/13 07:57:05;;;;;;;6.40;1.98;;;11.60;99.90;;;;;;5087118;28;20071;-70
2021/11/13 07:59:32;;;;;;;6.07;1.90;;;11.60;99.60;;;;;;5089976;28;20140;-70
2021/11/13 08:01:59;;;;;;;6.15;1.50;;;11.60;99.70;;;;;;5089110;28;20522;-70
2021/11/13 08:04:26;;;;;;;4.63;1.42;;;11.60;99.50;;;;;;5088753;28;20048;-70
2021/11/13 08:06:54;;;;;;;5.85;2.05;;;11.60;99.70;;;;;;5088694;28;20088;-70
2021/11/13 08:09:21;;;;;;;4.68;1.60;;;11.60;99.60;;;;;;5084682;28;20446;-70
2021/11/13 08:11:48;;;;;;;3.65;1.50;;;11.70;99.90;;;;;;5070927;28;20036;-70
2021/11/13 08:14:18;;;;;;;6.65;1.75;;;11.70;99.90;;;;;;5067480;28;20060;-69
2021/11/13 08:16:45;;;;;;;4.10;1.45;;;11.70;99.90;;;;;;5078907;28;20525;-71
2021/11/13 08:19:14;;;;;;;4.30;1.83;;;11.70;99.90;;;;;;5097061;28;20043;-72
2021/11/13 08:21:41;;;;;;;6.38;1.63;;;11.80;99.70;;;;;;5089311;28;20051;-69
2021/11/13 08:24:08;;;;;;;5.15;2.42;;;11.80;99.80;;;;;;5088537;28;20055;-72
2021/11/13 08:26:35;;;;;;;4.28;1.80;;;11.80;99.60;;;;;;5087946;28;20044;-71
2021/11/13 08:29:02;;;;;;;6.93;2.08;;;11.80;99.00;;;;;;5088516;28;20048;-71
2021/11/13 08:31:29;;;;;;;6.93;2.47;;;11.80;99.50;;;;;;5089758;28;20048;-71
2021/11/13 08:33:56;;;;;;;4.88;1.85;;;11.80;99.00;;;;;;5088683;28;20044;-72
2021/11/13 08:36:23;;;;;;;7.18;2.78;;;11.90;99.20;;;;;;5087925;28;20044;-71
2021/11/13 08:38:50;;;;;;;6.53;1.95;;;11.90;98.40;;;;;;5088209;28;20058;-71
2021/11/13 08:41:17;;;;;;;4.45;1.70;;;11.90;98.90;;;;;;5087929;28;20492;-71
2021/11/13 08:43:44;;;;;;;221.02;182.75;;;11.90;99.60;;;;;;5067659;28;20099;-81
2021/11/13 08:46:11;;;;;;;15.68;10.68;;;12.00;99.00;;;;;;5080363;28;20048;-71
2021/11/13 08:48:37;;;;;;;8.10;4.53;;;12.10;99.50;;;;;;5067383;28;20060;-73
2021/11/13 08:51:04;;;;;;;6.03;2.70;;;12.10;99.10;;;;;;5083273;28;20433;-71
2021/11/13 08:53:31;;;;;;;8.73;2.58;;;12.10;98.90;;;;;;5088412;28;20040;-77
2021/11/13 08:55:58;;;;;;;6.40;3.13;;;12.20;98.50;;;;;;5088098;28;20056;-71
2021/11/13 08:58:25;;;;;;;410.45;318.52;;;12.20;98.20;;;;;;5089136;28;20056;-72
2021/11/13 09:01:01;;;;;;;13.90;8.60;;;12.20;98.40;;;;;;5070751;28;20048;-72
2021/11/13 09:03:31;;;;;;;5.85;3.00;;;12.20;98.10;;;;;;5091889;28;20040;-70
2021/11/13 09:05:58;;;;;;;;;;;12.10;98.20;;;;;;5076780;28;20135;-71
2021/11/13 09:08:25;;;;;;;7.57;3.78;;;12.10;98.40;;;;;;5093468;28;20277;-71
2021/11/13 09:10:52;;;;;;;10.88;2.58;;;12.20;99.20;;;;;;5092238;28;20487;-71
2021/11/13 09:13:20;;;;;;;7.80;3.38;;;12.20;98.90;;;;;;5093823;28;20051;-71
2021/11/13 09:15:48;;;;;;;8.85;3.08;;;12.20;98.20;;;;;;5071793;28;20150;-71
2021/11/13 09:18:15;;;;;;;5.15;1.98;;;12.20;98.50;;;;;;5073073;28;20057;-71
2021/11/13 09:20:42;;;;;;;7.65;2.15;;;12.20;98.40;;;;;;5074383;28;20161;-71
2021/11/13 09:23:09;;;;;;;6.53;2.25;;;12.20;98.20;;;;;;5094652;28;20503;-71
2021/11/13 09:25:36;;;;;;;5.88;3.53;;;12.30;97.90;;;;;;5093542;28;20407;-71
2021/11/13 09:28:03;;;;;;;6.72;3.33;;;12.30;98.70;;;;;;5055275;28;20135;-71
2021/11/13 09:30:32;;;;;;;7.28;3.53;;;12.30;98.50;;;;;;5075162;28;20106;-71
2021/11/13 09:32:59;;;;;;;6.82;2.53;;;12.40;97.60;;;;;;5091740;28;20059;-71
2021/11/13 09:35:26;;;;;;;8.57;2.75;;;12.40;98.00;;;;;;5075559;28;20055;-71
2021/11/13 09:38:13;;;;;;;5.60;2.35;;;12.50;98.20;;;;;;5078217;28;20079;-71
2021/11/13 09:40:40;;;;;;;7.57;2.50;;;12.50;99.30;;;;;;5057564;28;20048;-71
2021/11/13 09:43:07;;;;;;;56.38;41.17;;;12.50;98.70;;;;;;5076772;28;20103;-71
2021/11/13 09:45:34;;;;;;;11.48;7.15;;;12.50;98.60;;;;;;5075507;28;20048;-72
2021/11/13 09:48:02;;;;;;;8.18;4.20;;;12.50;98.30;;;;;;5074751;28;20062;-71
2021/11/13 09:50:33;;;;;;;10.88;5.07;;;12.50;97.90;;;;;;5091863;28;20044;-71
2021/11/13 09:53:04;;;;;;;10.65;2.67;;;12.50;97.30;;;;;;5100220;28;20162;-71
2021/11/13 09:55:31;;;;;;;7.00;2.30;;;12.50;98.50;;;;;;5091672;28;21152;-72
2021/11/13 09:57:58;;;;;;;5.75;2.45;;;12.60;97.90;;;;;;5074492;28;20060;-72
2021/11/13 10:00:28;;;;;;;10.13;2.50;;;12.70;98.10;;;;;;5090695;28;21852;-67
2021/11/13 10:02:56;;;;;;;35.00;24.35;;;12.70;97.90;;;;;;5086264;28;20059;-70
2021/11/13 10:05:23;;;;;;;8.70;4.93;;;12.70;97.00;;;;;;5092258;28;20058;-70
2021/11/13 10:07:50;;;;;;;8.55;2.83;;;12.60;97.10;;;;;;5097109;28;20058;-70
2021/11/13 10:10:34;;;;;;;8.95;2.65;;;12.60;97.60;;;;;;5091510;28;20398;-72
2021/11/13 10:13:02;;;;;;;6.82;2.38;;;12.60;97.50;;;;;;5070841;28;20044;-69
2021/11/13 10:15:37;;;;;;;7.30;2.70;;;12.60;98.10;;;;;;5091916;28;20101;-73
2021/11/13 10:18:18;;;;;;;7.32;2.58;;;12.60;97.30;;;;;;5064133;28;20078;-72
2021/11/13 10:20:51;;;;;;;5.47;2.80;;;12.70;97.50;;;;;;5071746;28;20048;-72
2021/11/13 10:23:27;;;;;;;11.90;6.85;;;12.80;97.30;;;;;;5074054;28;20044;-70
2021/11/13 10:26:06;;;;;;;12.35;3.85;;;12.90;97.70;;;;;;5092375;28;20048;-77
2021/11/13 10:28:46;;;;;;;7.55;2.70;;;13.00;97.00;;;;;;5092231;28;20055;-78
2021/11/13 10:31:19;;;;;;;9.73;2.70;;;13.10;96.10;;;;;;5093026;28;20036;-79
2021/11/13 10:33:47;;;;;;;12.20;3.63;;;13.10;96.00;;;;;;5074655;28;20044;-76
2021/11/13 10:36:20;;;;;;;7.05;2.53;;;13.00;95.50;;;;;;5091137;28;20058;-78
2021/11/13 10:38:49;;;;;;;6.65;3.00;;;13.00;95.50;;;;;;5090901;28;20048;-75
2021/11/13 10:41:18;;;;;;;6.80;2.73;;;13.00;95.30;;;;;;5090771;28;20044;-79
2021/11/13 10:43:46;;;;;;;6.82;1.90;;;13.10;96.20;;;;;;5091236;28;20395;-78
2021/11/13 10:46:18;;;;;;;5.05;2.42;;;13.20;96.70;;;;;;5091298;28;20063;-79
2021/11/13 10:48:50;;;;;;;7.32;2.60;;;13.30;95.90;;;;;;5091634;28;20182;-78
2021/11/13 10:51:27;;;;;;;4.05;2.05;;;13.30;95.30;;;;;;5090841;28;20166;-74
2021/11/13 10:53:54;;;;;;;6.68;2.33;;;13.30;95.50;;;;;;5093477;28;20044;-79
2021/11/13 10:56:25;;;;;;;4.75;2.10;;;13.30;95.90;;;;;;5089124;28;20060;-78
2021/11/13 10:59:03;;;;;;;5.25;2.60;;;13.40;95.40;;;;;;5089822;28;20084;-77
2021/11/13 11:01:34;;;;;;;5.28;2.58;;;13.40;95.30;;;;;;5073953;28;20091;-77
2021/11/13 11:04:06;;;;;;;28.65;19.80;;;13.40;93.60;;;;;;5092110;28;20135;-75
2021/11/13 11:06:41;;;;;;;1570.38;677.03;;;13.40;95.90;;;;;;5088748;28;20460;-73
2021/11/13 11:09:31;;;;;;;114.13;83.88;;;13.40;95.30;;;;;;5089458;28;20052;-71
2021/11/13 11:12:00;;;;;;;25.52;16.15;;;13.40;94.90;;;;;;5089598;28;20048;-71
2021/11/13 11:14:29;;;;;;;9.10;5.13;;;13.40;93.90;;;;;;5087756;28;20047;-70
2021/11/13 11:17:01;;;;;;;9.23;2.87;;;13.40;94.30;;;;;;5089572;28;20281;-72
2021/11/13 11:19:30;;;;;;;8.00;2.70;;;13.40;93.90;;;;;;5087525;28;20105;-70
2021/11/13 11:21:58;;;;;;;;;;;13.40;93.20;;;;;;5072220;28;20066;-74
2021/11/13 11:24:32;;;;;;;59.40;40.88;;;13.30;94.10;;;;;;5087859;28;19931;-76
2021/11/13 11:27:16;;;;;;;12.18;4.85;;;13.40;94.00;;;;;;5087781;28;20375;-75
2021/11/13 11:29:57;;;;;;;9.35;3.00;;;13.30;93.20;;;;;;5089186;28;20054;-75
2021/11/13 11:32:28;;;;;;;9.13;2.50;;;13.30;93.60;;;;;;5087331;28;20044;-73
2021/11/13 11:34:57;;;;;;;6.50;2.42;;;13.30;94.20;;;;;;5089279;28;20052;-78
2021/11/13 11:37:47;;;;;;;4.43;2.17;;;13.30;94.10;;;;;;5089218;28;20044;-72
2021/11/13 11:40:17;;;;;;;5.38;2.40;;;13.30;94.20;;;;;;5083598;28;20052;-77
2021/11/13 11:42:45;;;;;;;5.95;2.10;;;13.30;93.80;;;;;;5087918;28;20043;-78
2021/11/13 11:45:14;;;;;;;7.05;2.90;;;13.30;93.80;;;;;;5087726;28;20052;-76
2021/11/13 11:47:43;;;;;;;7.75;1.92;;;13.30;93.80;;;;;;5070635;28;20107;-77
2021/11/13 11:50:12;;;;;;;4.38;2.58;;;13.30;94.60;;;;;;5080438;28;20073;-75
2021/11/13 11:52:43;;;;;;;8.68;2.40;;;13.30;93.00;;;;;;5097148;28;20125;-76
2021/11/13 11:55:11;;;;;;;6.78;2.15;;;13.30;94.00;;;;;;5108288;28;20062;-76
2021/11/13 11:57:42;;;;;;;5.87;2.03;;;13.30;93.70;;;;;;5094363;28;20056;-75
2021/11/13 12:00:14;;;;;;;9.05;2.65;;;13.30;93.10;;;;;;5070262;28;20044;-75
2021/11/13 12:02:44;;;;;;;5.82;2.85;;;13.30;93.60;;;;;;5088431;28;20052;-81
2021/11/13 12:05:16;;;;;;;;;;;13.30;92.90;;;;;;5089293;28;20051;-74
2021/11/13 12:07:43;;;;;;;8.88;2.20;;;13.20;92.50;;;;;;5088561;28;19920;-78
2021/11/13 12:10:11;;;;;;;4.57;2.30;;;13.20;93.40;;;;;;5087393;28;20047;-73
2021/11/13 12:12:43;;;;;;;4.50;1.98;;;13.20;94.90;;;;;;5086298;28;20101;-71
2021/11/13 12:15:16;;;;;;;5.78;2.30;;;13.20;93.10;;;;;;5087472;28;20055;-74
2021/11/13 12:17:44;;;;;;;5.90;2.28;;;13.10;93.40;;;;;;5070426;28;20100;-75
2021/11/13 12:20:12;;;;;;;92.85;73.85;;;13.10;93.50;;;;;;5070351;28;20423;-74
2021/11/13 12:22:44;;;;;;;52.38;39.72;;;13.20;94.00;;;;;;5096660;28;20059;-71
2021/11/13 12:25:12;;;;;;;10.80;7.20;;;13.20;92.80;;;;;;5085896;28;20088;-74
2021/11/13 12:27:39;;;;;;;7.05;2.47;;;13.20;93.10;;;;;;5088854;28;20067;-73
2021/11/13 12:30:07;;;;;;;5.45;2.40;;;13.20;92.20;;;;;;5090417;28;20036;-73
2021/11/13 12:32:38;;;;;;;3.70;2.33;;;13.10;92.10;;;;;;5088670;28;20044;-75
2021/11/13 12:35:06;;;;;;;4.15;2.10;;;13.10;93.00;;;;;;5089328;28;20052;-73
2021/11/13 12:37:33;;;;;;;4.13;2.40;;;13.10;92.40;;;;;;5071897;28;20055;-73
2021/11/13 12:40:00;;;;;;;6.15;2.45;;;13.10;94.00;;;;;;5073486;28;20046;-73
2021/11/13 12:42:30;;;;;;;4.10;2.30;;;13.20;93.70;;;;;;5084064;28;20094;-75
2021/11/13 12:45:01;;;;;;;6.82;2.58;;;13.10;91.80;;;;;;5073482;28;20067;-79
2021/11/13 12:47:34;;;;;;;3.63;1.98;;;13.20;92.20;;;;;;5069106;28;20049;-75
2021/11/13 12:50:08;;;;;;;20.10;12.98;;;13.20;92.60;;;;;;5052269;28;20041;-72
2021/11/13 12:52:46;;;;;;;21.05;11.95;;;13.10;93.10;;;;;;5105530;28;20054;-76